Time;durP1;ratioP1;P1;durP2;ratioP2;P2;SDS_P1;SDS_P2;PMS_P1;PMS_P2;Temp;Humidity;BMP_temperature;BMP_pressure;BME280_temperature;BME280_humidity;BME280_pressure;Samples;Min_cycle;Max_cycle;Signal;HPM_P1;HPM_P2
2022/03/10 00:01:41;;;;;;;16.67;8.53;;;;;;;;;;5074744;28;20227;-48
2022/03/10 00:04:08;;;;;;;17.40;8.83;;;;;;;;;;5074905;28;20596;-49
2022/03/10 00:06:37;;;;;;;15.23;8.07;;;;;;;;;;5074970;28;20571;-48
2022/03/10 00:09:05;;;;;;;21.67;9.23;;;;;;;;;;5074791;28;20234;-47
2022/03/10 00:11:32;;;;;;;15.47;8.43;;;;;;;;;;5074955;28;20223;-48
2022/03/10 00:13:59;;;;;;;21.83;10.17;;;;;;;;;;5074294;28;20234;-48
2022/03/10 00:16:26;;;;;;;19.97;10.30;;;;;;;;;;5074794;28;20219;-48
2022/03/10 00:18:53;;;;;;;18.73;10.00;;;;;;;;;;5074375;28;20581;-47
2022/03/10 00:21:20;;;;;;;24.43;11.57;;;;;;;;;;5074406;28;20668;-47
2022/03/10 00:23:48;;;;;;;20.67;9.10;;;;;;;;;;5074960;28;20253;-48
2022/03/10 00:26:15;;;;;;;23.07;10.77;;;;;;;;;;5074546;28;20206;-47
2022/03/10 00:28:44;;;;;;;22.37;10.73;;;;;;;;;;5074771;28;20203;-47
2022/03/10 00:31:11;;;;;;;24.07;10.97;;;;;;;;;;5074316;28;20230;-49
2022/03/10 00:33:38;;;;;;;21.63;10.83;;;;;;;;;;5074855;28;20292;-48
2022/03/10 00:36:06;;;;;;;25.80;10.67;;;;;;;;;;5074568;28;20199;-48
2022/03/10 00:38:34;;;;;;;23.47;10.57;;;;;;;;;;5074300;28;20288;-49
2022/03/10 00:41:01;;;;;;;24.00;11.50;;;;;;;;;;5074178;28;20269;-52
2022/03/10 00:43:28;;;;;;;23.53;10.97;;;;;;;;;;5075241;28;20223;-52
2022/03/10 00:45:55;;;;;;;24.13;11.73;;;;;;;;;;5078737;28;20206;-50
2022/03/10 00:48:23;;;;;;;23.90;11.77;;;;;;;;;;5078113;28;20643;-47
2022/03/10 00:50:50;;;;;;;25.73;11.70;;;;;;;;;;5078033;28;20286;-48
2022/03/10 00:53:17;;;;;;;27.30;12.07;;;;;;;;;;5078154;28;20641;-48
2022/03/10 00:55:44;;;;;;;27.10;13.73;;;;;;;;;;5077884;28;20253;-47
2022/03/10 00:58:11;;;;;;;29.77;14.33;;;;;;;;;;5078131;28;20219;-49
2022/03/10 01:00:38;;;;;;;33.60;13.93;;;;;;;;;;5077918;28;20292;-48
2022/03/10 01:03:09;;;;;;;30.50;15.07;;;;;;;;;;5077673;28;20231;-49
2022/03/10 01:05:36;;;;;;;34.57;14.03;;;;;;;;;;5078040;28;20302;-49
2022/03/10 01:08:04;;;;;;;35.63;15.93;;;;;;;;;;5077711;28;20276;-48
2022/03/10 01:10:31;;;;;;;33.57;15.13;;;;;;;;;;5077660;28;20195;-49
2022/03/10 01:12:59;;;;;;;35.67;14.93;;;;;;;;;;5077586;28;20286;-48
2022/03/10 01:15:28;;;;;;;29.67;13.07;;;;;;;;;;5077767;28;20257;-49
2022/03/10 01:17:56;;;;;;;33.20;15.10;;;;;;;;;;5077785;28;20199;-48
2022/03/10 01:20:25;;;;;;;30.13;13.27;;;;;;;;;;5077761;28;20203;-48
2022/03/10 01:22:52;;;;;;;32.23;14.80;;;;;;;;;;5078184;28;20533;-47
2022/03/10 01:25:19;;;;;;;28.60;12.57;;;;;;;;;;5077437;28;20303;-47
2022/03/10 01:27:46;;;;;;;28.70;12.03;;;;;;;;;;5077468;28;20269;-48
2022/03/10 01:30:14;;;;;;;29.83;12.67;;;;;;;;;;5077389;28;20204;-49
2022/03/10 01:32:41;;;;;;;30.30;13.97;;;;;;;;;;5077570;28;20200;-48
2022/03/10 01:35:09;;;;;;;27.37;13.63;;;;;;;;;;5077327;28;20219;-48
2022/03/10 01:37:37;;;;;;;28.73;12.43;;;;;;;;;;5077433;28;20258;-48
2022/03/10 01:40:06;;;;;;;25.33;12.47;;;;;;;;;;5077176;28;20242;-50
2022/03/10 01:42:34;;;;;;;22.23;11.93;;;;;;;;;;5077141;28;20199;-48
2022/03/10 01:45:03;;;;;;;30.17;13.40;;;;;;;;;;5077359;28;20296;-48
2022/03/10 01:47:30;;;;;;;17.73;9.17;;;;;;;;;;5077142;28;20526;-47
2022/03/10 01:49:57;;;;;;;20.47;11.27;;;;;;;;;;5077177;28;20204;-48
2022/03/10 01:52:24;;;;;;;21.17;10.47;;;;;;;;;;5077168;28;20234;-48
2022/03/10 01:54:51;;;;;;;23.00;10.17;;;;;;;;;;5077012;28;20228;-48
2022/03/10 01:57:19;;;;;;;24.57;11.67;;;;;;;;;;5059782;28;20219;-48
2022/03/10 01:59:46;;;;;;;22.47;10.70;;;;;;;;;;5076931;28;20669;-48
2022/03/10 02:02:13;;;;;;;22.00;10.30;;;;;;;;;;5076836;28;20372;-48
2022/03/10 02:04:41;;;;;;;20.03;9.47;;;;;;;;;;5077021;28;20215;-47
2022/03/10 02:10:16;;;;;;;21.37;9.47;;;;;;;;;;5076844;28;20593;-48
2022/03/10 02:12:46;;;;;;;21.43;8.90;;;;;;;;;;5076639;28;20258;-48
2022/03/10 02:18:10;;;;;;;18.50;9.63;;;;;;;;;;5048873;28;20235;-48
2022/03/10 02:20:38;;;;;;;21.23;10.60;;;;;;;;;;5076432;28;20287;-49
2022/03/10 02:23:07;;;;;;;19.63;10.10;;;;;;;;;;5076615;28;20619;-49
2022/03/10 02:25:36;;;;;;;17.20;8.50;;;;;;;;;;5076210;28;20253;-48
2022/03/10 02:28:03;;;;;;;14.67;7.93;;;;;;;;;;5076581;28;20242;-48
2022/03/10 02:30:32;;;;;;;20.20;10.43;;;;;;;;;;5076116;28;20204;-49
2022/03/10 02:32:59;;;;;;;21.77;9.80;;;;;;;;;;5076455;28;20223;-48
2022/03/10 02:35:27;;;;;;;22.13;9.73;;;;;;;;;;5076551;28;20608;-48
2022/03/10 02:37:55;;;;;;;19.40;8.93;;;;;;;;;;5076108;28;20657;-47
2022/03/10 02:40:22;;;;;;;19.63;9.27;;;;;;;;;;5076608;28;20302;-47
2022/03/10 02:42:49;;;;;;;20.17;8.70;;;;;;;;;;5076239;28;20207;-49
2022/03/10 02:45:16;;;;;;;18.87;9.83;;;;;;;;;;5075998;28;20242;-47
2022/03/10 02:47:43;;;;;;;19.37;9.20;;;;;;;;;;5075874;28;20615;-48
2022/03/10 02:50:10;;;;;;;17.17;8.67;;;;;;;;;;5075701;28;20595;-52
2022/03/10 02:52:38;;;;;;;21.53;10.00;;;;;;;;;;5076037;28;20292;-48
2022/03/10 02:55:06;;;;;;;19.53;9.60;;;;;;;;;;5075585;28;20250;-49
2022/03/10 02:57:34;;;;;;;16.33;8.77;;;;;;;;;;5075983;28;20215;-48
2022/03/10 03:00:03;;;;;;;22.43;9.07;;;;;;;;;;5075699;28;20231;-49
2022/03/10 03:02:30;;;;;;;15.80;8.30;;;;;;;;;;5075759;28;20250;-49
2022/03/10 03:04:57;;;;;;;15.93;8.90;;;;;;;;;;5075444;28;20210;-49
2022/03/10 03:07:24;;;;;;;19.53;9.27;;;;;;;;;;5074964;28;20719;-48
2022/03/10 03:09:51;;;;;;;18.70;7.83;;;;;;;;;;5075801;28;20284;-48
2022/03/10 03:12:18;;;;;;;13.80;8.50;;;;;;;;;;5075494;28;20206;-47
2022/03/10 03:14:46;;;;;;;18.60;10.20;;;;;;;;;;5075295;28;20262;-50
2022/03/10 03:17:13;;;;;;;16.13;8.07;;;;;;;;;;5075525;28;20228;-49
2022/03/10 03:19:40;;;;;;;12.10;6.87;;;;;;;;;;5075211;28;20245;-48
2022/03/10 03:22:07;;;;;;;19.33;9.53;;;;;;;;;;5075209;28;20752;-49
2022/03/10 03:24:34;;;;;;;15.47;7.93;;;;;;;;;;5075821;28;20199;-48
2022/03/10 03:27:02;;;;;;;14.67;7.37;;;;;;;;;;5075053;28;20253;-48
2022/03/10 03:29:29;;;;;;;17.33;8.23;;;;;;;;;;5075324;28;20238;-49
2022/03/10 03:31:56;;;;;;;20.47;10.00;;;;;;;;;;5075249;28;20297;-49
2022/03/10 03:34:23;;;;;;;19.30;8.93;;;;;;;;;;5075015;28;20226;-48
2022/03/10 03:36:50;;;;;;;17.40;9.33;;;;;;;;;;5075703;28;20238;-48
2022/03/10 03:39:18;;;;;;;16.10;7.90;;;;;;;;;;5075190;28;20223;-49
2022/03/10 03:41:45;;;;;;;13.60;6.77;;;;;;;;;;5075126;28;20200;-48
2022/03/10 03:44:12;;;;;;;16.87;9.17;;;;;;;;;;5075136;28;20257;-49
2022/03/10 03:46:41;;;;;;;20.17;10.40;;;;;;;;;;5074906;28;20234;-48
2022/03/10 03:49:10;;;;;;;20.90;9.70;;;;;;;;;;5074844;28;20191;-47
2022/03/10 03:51:38;;;;;;;25.27;11.97;;;;;;;;;;5074879;28;20219;-47
2022/03/10 03:54:06;;;;;;;26.97;11.40;;;;;;;;;;5074679;28;20595;-48
2022/03/10 03:56:37;;;;;;;11.50;6.80;;;;;;;;;;5074994;28;20286;-47
2022/03/10 03:59:05;;;;;;;21.77;10.57;;;;;;;;;;5074910;28;20223;-47
2022/03/10 04:01:32;;;;;;;20.37;9.23;;;;;;;;;;5057331;28;20199;-48
2022/03/10 04:04:00;;;;;;;32.17;11.73;;;;;;;;;;5075350;28;20231;-47
2022/03/10 04:06:27;;;;;;;33.83;15.00;;;;;;;;;;5074726;28;20231;-48
2022/03/10 04:08:54;;;;;;;43.57;16.63;;;;;;;;;;5074564;28;20286;-48
2022/03/10 04:11:21;;;;;;;37.87;16.07;;;;;;;;;;5074445;28;20674;-48
2022/03/10 04:13:49;;;;;;;31.50;12.03;;;;;;;;;;5074826;28;20211;-48
2022/03/10 04:16:17;;;;;;;37.43;15.10;;;;;;;;;;5075048;28;20215;-48
2022/03/10 04:18:45;;;;;;;28.20;13.87;;;;;;;;;;5076406;28;20238;-48
2022/03/10 04:21:12;;;;;;;21.67;12.23;;;;;;;;;;5078710;28;20218;-49
2022/03/10 04:23:39;;;;;;;20.97;9.27;;;;;;;;;;5078658;28;20233;-47
2022/03/10 04:26:06;;;;;;;18.57;9.30;;;;;;;;;;5078539;28;20583;-47
2022/03/10 04:28:33;;;;;;;21.00;9.67;;;;;;;;;;5078238;28;20227;-48
2022/03/10 04:31:01;;;;;;;22.53;10.87;;;;;;;;;;5078333;28;20219;-48
2022/03/10 04:33:28;;;;;;;22.27;11.83;;;;;;;;;;5078170;28;20199;-48
2022/03/10 04:35:56;;;;;;;14.70;7.43;;;;;;;;;;5078167;28;20743;-48
2022/03/10 04:38:24;;;;;;;21.80;10.53;;;;;;;;;;5078038;28;20211;-50
2022/03/10 04:40:52;;;;;;;39.17;17.17;;;;;;;;;;5077938;28;20215;-48
2022/03/10 04:43:19;;;;;;;30.13;15.70;;;;;;;;;;5078252;28;20278;-48
2022/03/10 04:45:46;;;;;;;16.50;8.20;;;;;;;;;;5077986;28;20214;-48
2022/03/10 04:48:13;;;;;;;20.63;9.13;;;;;;;;;;5077832;28;20286;-48
2022/03/10 04:50:41;;;;;;;15.07;7.90;;;;;;;;;;5077861;28;20219;-48
2022/03/10 04:53:08;;;;;;;17.63;7.60;;;;;;;;;;5077877;28;20199;-49
2022/03/10 04:55:35;;;;;;;19.73;8.97;;;;;;;;;;5077659;28;20692;-48
2022/03/10 04:58:04;;;;;;;23.27;11.17;;;;;;;;;;5077615;28;20238;-47
2022/03/10 05:00:31;;;;;;;25.40;10.03;;;;;;;;;;5077694;28;20203;-50
2022/03/10 05:02:59;;;;;;;23.00;10.47;;;;;;;;;;5077717;28;20328;-49
2022/03/10 05:05:26;;;;;;;11.07;6.23;;;;;;;;;;5077572;28;20218;-49
2022/03/10 05:07:53;;;;;;;16.17;7.83;;;;;;;;;;5077450;28;20234;-48
2022/03/10 05:10:20;;;;;;;16.03;8.43;;;;;;;;;;5077454;28;20208;-49
2022/03/10 05:12:49;;;;;;;16.80;6.17;;;;;;;;;;5077424;28;20199;-50
2022/03/10 05:15:18;;;;;;;15.13;7.97;;;;;;;;;;5072125;28;20219;-50
2022/03/10 05:17:45;;;;;;;8.50;5.57;;;;;;;;;;5061640;28;20224;-49
2022/03/10 05:20:12;;;;;;;15.97;7.77;;;;;;;;;;5072066;28;20265;-51
2022/03/10 05:22:43;;;;;;;12.67;6.03;;;;;;;;;;5076019;28;20258;-52
2022/03/10 05:25:11;;;;;;;13.13;7.20;;;;;;;;;;5076826;28;20227;-53
2022/03/10 05:27:38;;;;;;;18.80;8.00;;;;;;;;;;5075817;28;20585;-52
2022/03/10 05:30:05;;;;;;;15.40;7.60;;;;;;;;;;5075926;28;20277;-48
2022/03/10 05:32:33;;;;;;;21.77;8.00;;;;;;;;;;5075476;28;20234;-48
2022/03/10 05:35:00;;;;;;;19.40;8.97;;;;;;;;;;5076523;28;20289;-50
2022/03/10 05:37:28;;;;;;;17.03;8.23;;;;;;;;;;5075434;28;20234;-48
2022/03/10 05:39:56;;;;;;;15.20;7.33;;;;;;;;;;5069413;28;20226;-48
2022/03/10 05:42:23;;;;;;;17.70;7.77;;;;;;;;;;5072840;28;20266;-52
2022/03/10 05:44:50;;;;;;;22.63;10.50;;;;;;;;;;5075650;28;20226;-48
2022/03/10 05:47:17;;;;;;;19.73;9.37;;;;;;;;;;5075218;28;20253;-53
2022/03/10 05:49:45;;;;;;;13.40;7.50;;;;;;;;;;5075767;28;20230;-50
2022/03/10 05:52:12;;;;;;;19.63;11.10;;;;;;;;;;5074703;28;20223;-49
2022/03/10 05:54:39;;;;;;;15.20;10.00;;;;;;;;;;5074228;28;20315;-50
2022/03/10 05:57:06;;;;;;;21.37;11.17;;;;;;;;;;5075616;28;20358;-48
2022/03/10 05:59:33;;;;;;;15.73;9.40;;;;;;;;;;5075296;28;20219;-51
2022/03/10 06:02:00;;;;;;;16.03;10.53;;;;;;;;;;5074619;28;20230;-51
2022/03/10 06:04:28;;;;;;;16.77;8.33;;;;;;;;;;5073338;28;20215;-50
2022/03/10 06:06:55;;;;;;;16.20;7.50;;;;;;;;;;5075346;28;20595;-49
2022/03/10 06:09:23;;;;;;;17.20;7.87;;;;;;;;;;5075647;28;20215;-51
2022/03/10 06:11:51;;;;;;;13.30;5.97;;;;;;;;;;5074954;28;20230;-50
2022/03/10 06:14:18;;;;;;;18.60;8.93;;;;;;;;;;5073688;28;20246;-49
2022/03/10 06:16:45;;;;;;;14.73;7.67;;;;;;;;;;5074011;28;20761;-48
2022/03/10 06:19:13;;;;;;;15.47;8.97;;;;;;;;;;5074468;28;20231;-51
2022/03/10 06:21:40;;;;;;;20.13;8.67;;;;;;;;;;5075091;28;20501;-48
2022/03/10 06:24:07;;;;;;;14.23;7.53;;;;;;;;;;5075040;28;20195;-49
2022/03/10 06:26:36;;;;;;;15.50;5.43;;;;;;;;;;5074637;28;20603;-53
2022/03/10 06:29:04;;;;;;;20.40;8.73;;;;;;;;;;5074889;28;20196;-49
2022/03/10 06:31:34;;;;;;;9.10;4.90;;;;;;;;;;5074755;28;20196;-49
2022/03/10 06:34:01;;;;;;;14.93;7.70;;;;;;;;;;5075370;28;20204;-48
2022/03/10 06:36:29;;;;;;;20.20;8.17;;;;;;;;;;5075920;28;20281;-49
2022/03/10 06:38:56;;;;;;;19.90;8.13;;;;;;;;;;5076308;28;20535;-48
2022/03/10 06:41:23;;;;;;;14.80;8.33;;;;;;;;;;5075115;28;20652;-48
2022/03/10 06:43:50;;;;;;;14.77;7.97;;;;;;;;;;5075990;28;20192;-48
2022/03/10 06:46:18;;;;;;;15.50;8.40;;;;;;;;;;5076780;28;20294;-48
2022/03/10 06:48:45;;;;;;;17.10;9.70;;;;;;;;;;5076211;28;20211;-50
2022/03/10 06:51:15;;;;;;;11.50;6.93;;;;;;;;;;5076113;28;20207;-48
2022/03/10 06:53:42;;;;;;;18.03;8.73;;;;;;;;;;5075915;28;20203;-48
2022/03/10 06:56:09;;;;;;;18.47;8.30;;;;;;;;;;5075861;28;20259;-49
2022/03/10 06:58:36;;;;;;;14.50;7.63;;;;;;;;;;5075714;28;20651;-48
2022/03/10 07:01:03;;;;;;;19.97;10.17;;;;;;;;;;5075879;28;20246;-48
2022/03/10 07:03:31;;;;;;;18.90;8.70;;;;;;;;;;5075805;28;20324;-48
2022/03/10 07:05:59;;;;;;;18.60;8.03;;;;;;;;;;5075658;28;20637;-48
2022/03/10 07:08:26;;;;;;;17.60;9.90;;;;;;;;;;5075443;28;20248;-49
2022/03/10 07:10:53;;;;;;;17.17;8.47;;;;;;;;;;5075342;28;20238;-49
2022/03/10 07:13:20;;;;;;;16.37;8.20;;;;;;;;;;5075747;28;20577;-48
2022/03/10 07:15:50;;;;;;;15.67;8.23;;;;;;;;;;5075606;28;20226;-48
2022/03/10 07:18:17;;;;;;;14.80;8.07;;;;;;;;;;5075443;28;20301;-48
2022/03/10 07:20:44;;;;;;;15.23;8.73;;;;;;;;;;5075633;28;20204;-48
2022/03/10 07:23:11;;;;;;;9.23;4.70;;;;;;;;;;5075283;28;20213;-48
2022/03/10 07:25:41;;;;;;;18.80;9.00;;;;;;;;;;5075342;28;20660;-47
2022/03/10 07:28:09;;;;;;;17.80;8.30;;;;;;;;;;5075454;28;20192;-49
2022/03/10 07:30:36;;;;;;;20.20;9.40;;;;;;;;;;5075059;28;20196;-48
2022/03/10 07:33:04;;;;;;;19.07;8.57;;;;;;;;;;5075192;28;20683;-48
2022/03/10 07:35:31;;;;;;;19.07;8.73;;;;;;;;;;5075073;28;20214;-48
2022/03/10 07:37:59;;;;;;;17.67;9.13;;;;;;;;;;5075017;28;20294;-47
2022/03/10 07:40:27;;;;;;;17.20;8.00;;;;;;;;;;5075185;28;20562;-48
2022/03/10 07:42:55;;;;;;;16.50;7.30;;;;;;;;;;5075101;28;20199;-47
2022/03/10 07:45:22;;;;;;;17.67;6.87;;;;;;;;;;5074814;28;20200;-47
2022/03/10 07:47:49;;;;;;;13.33;7.67;;;;;;;;;;5075291;28;20200;-47
2022/03/10 07:50:17;;;;;;;12.23;6.90;;;;;;;;;;5074707;28;20200;-48
2022/03/10 07:52:44;;;;;;;11.77;6.70;;;;;;;;;;5074642;28;20236;-47
2022/03/10 07:55:13;;;;;;;15.50;6.80;;;;;;;;;;5074602;28;20246;-47
2022/03/10 07:57:41;;;;;;;12.97;7.70;;;;;;;;;;5075002;28;20286;-48
2022/03/10 08:00:09;;;;;;;10.60;5.83;;;;;;;;;;5074790;28;20196;-47
2022/03/10 08:02:37;;;;;;;11.17;6.23;;;;;;;;;;5074570;28;20595;-48
2022/03/10 08:05:07;;;;;;;9.20;6.27;;;;;;;;;;5074714;28;20585;-48
2022/03/10 08:07:34;;;;;;;10.37;5.77;;;;;;;;;;5074526;28;20298;-50
2022/03/10 08:10:04;;;;;;;13.03;5.73;;;;;;;;;;5074796;28;20257;-47
2022/03/10 08:12:32;;;;;;;7.27;4.77;;;;;;;;;;5074712;28;20206;-47
2022/03/10 08:14:59;;;;;;;10.70;5.83;;;;;;;;;;5057123;28;20290;-48
2022/03/10 08:17:27;;;;;;;8.30;5.47;;;;;;;;;;5074346;28;20254;-48
2022/03/10 08:19:55;;;;;;;8.57;5.20;;;;;;;;;;5075217;28;20579;-48
2022/03/10 08:22:24;;;;;;;9.70;6.47;;;;;;;;;;5074764;28;20211;-47
2022/03/10 08:24:52;;;;;;;5.40;3.83;;;;;;;;;;5074895;28;20211;-49
2022/03/10 08:27:19;;;;;;;8.13;5.53;;;;;;;;;;5074458;28;20203;-48
2022/03/10 08:29:46;;;;;;;11.87;5.40;;;;;;;;;;5074413;28;20328;-49
2022/03/10 08:32:15;;;;;;;8.43;5.57;;;;;;;;;;5074631;28;20231;-48
2022/03/10 08:34:42;;;;;;;10.77;6.50;;;;;;;;;;5074306;28;20246;-47
2022/03/10 08:37:09;;;;;;;10.97;6.07;;;;;;;;;;5074380;28;20731;-47
2022/03/10 08:39:36;;;;;;;9.23;5.50;;;;;;;;;;5074337;28;20219;-48
2022/03/10 08:42:04;;;;;;;10.80;6.00;;;;;;;;;;5074677;28;20270;-48
2022/03/10 08:44:31;;;;;;;6.70;3.43;;;;;;;;;;5074369;28;20560;-48
2022/03/10 08:46:58;;;;;;;9.00;5.80;;;;;;;;;;5056791;28;20250;-48
2022/03/10 08:49:25;;;;;;;11.07;5.97;;;;;;;;;;5074223;28;20257;-48
2022/03/10 08:51:52;;;;;;;11.50;6.13;;;;;;;;;;5074174;28;20241;-48
2022/03/10 08:54:20;;;;;;;7.40;4.50;;;;;;;;;;5074615;28;20284;-47
2022/03/10 08:56:47;;;;;;;10.57;6.97;;;;;;;;;;5074099;28;20250;-47
2022/03/10 08:59:14;;;;;;;8.80;5.10;;;;;;;;;;5074023;28;20253;-48
2022/03/10 09:01:41;;;;;;;8.63;5.27;;;;;;;;;;5073949;28;20235;-51
2022/03/10 09:04:09;;;;;;;10.70;5.93;;;;;;;;;;5074466;28;20199;-47
2022/03/10 09:06:36;;;;;;;8.43;5.50;;;;;;;;;;5077935;28;20669;-47
2022/03/10 09:09:03;;;;;;;8.60;5.50;;;;;;;;;;5077977;28;20282;-47
2022/03/10 09:11:30;;;;;;;8.83;5.10;;;;;;;;;;5077977;28;20584;-47
2022/03/10 09:13:59;;;;;;;11.17;5.30;;;;;;;;;;5077666;28;20689;-48
2022/03/10 09:16:26;;;;;;;9.10;4.57;;;;;;;;;;5078267;28;20326;-48
2022/03/10 09:18:54;;;;;;;9.03;4.77;;;;;;;;;;5077836;28;20205;-49
2022/03/10 09:21:21;;;;;;;3.20;2.50;;;;;;;;;;5077684;28;20245;-48
2022/03/10 09:23:48;;;;;;;8.40;4.40;;;;;;;;;;5077602;28;20203;-47
2022/03/10 09:26:15;;;;;;;7.37;3.50;;;;;;;;;;5077415;28;20505;-48
2022/03/10 09:28:43;;;;;;;10.70;3.47;;;;;;;;;;5077684;28;20195;-49
2022/03/10 09:31:17;;;;;;;6.23;3.03;;;;;;;;;;5077492;28;20203;-47
2022/03/10 09:33:45;;;;;;;5.73;2.90;;;;;;;;;;5077745;28;20606;-48
2022/03/10 09:36:16;;;;;;;5.47;3.43;;;;;;;;;;5077459;28;20253;-48
2022/03/10 09:38:43;;;;;;;6.37;2.83;;;;;;;;;;5077175;28;20257;-48
2022/03/10 09:41:10;;;;;;;6.20;3.57;;;;;;;;;;5077497;28;20219;-48
2022/03/10 09:43:38;;;;;;;5.67;3.40;;;;;;;;;;5077403;28;20223;-48
2022/03/10 09:46:08;;;;;;;5.73;4.03;;;;;;;;;;5077340;28;20230;-48
2022/03/10 09:48:37;;;;;;;6.77;3.90;;;;;;;;;;5077540;28;20203;-48
2022/03/10 09:51:04;;;;;;;10.60;4.87;;;;;;;;;;5076955;28;20203;-49
2022/03/10 09:53:31;;;;;;;8.60;4.50;;;;;;;;;;5077110;28;20222;-50
2022/03/10 09:55:58;;;;;;;6.83;4.37;;;;;;;;;;5076891;28;20241;-50
2022/03/10 09:58:26;;;;;;;7.13;4.60;;;;;;;;;;5059976;28;20205;-50
2022/03/10 10:00:59;;;;;;;4.73;3.23;;;;;;;;;;5077219;28;20256;-53
2022/03/10 10:03:28;;;;;;;7.63;4.60;;;;;;;;;;5077017;28;20269;-55
2022/03/10 10:06:00;;;;;;;7.27;4.20;;;;;;;;;;5076653;28;20207;-52
2022/03/10 10:08:28;;;;;;;6.77;3.87;;;;;;;;;;5076700;28;20669;-48
2022/03/10 10:10:56;;;;;;;9.63;4.57;;;;;;;;;;5076883;28;20302;-48
2022/03/10 10:13:30;;;;;;;8.23;4.40;;;;;;;;;;5076818;28;20204;-48
2022/03/10 10:16:03;;;;;;;11.67;3.80;;;;;;;;;;5075186;28;20227;-50
2022/03/10 10:18:32;;;;;;;7.83;4.67;;;;;;;;;;5077063;28;20231;-48
2022/03/10 10:21:12;;;;;;;8.90;4.60;;;;;;;;;;5076777;28;20544;-50
2022/03/10 10:23:41;;;;;;;8.83;4.53;;;;;;;;;;5076670;28;20264;-48
2022/03/10 10:26:10;;;;;;;8.43;4.83;;;;;;;;;;5059556;28;20250;-48
2022/03/10 10:28:47;;;;;;;7.57;4.60;;;;;;;;;;5076569;28;20238;-48
2022/03/10 10:31:19;;;;;;;11.30;5.03;;;;;;;;;;5059030;28;20211;-49
2022/03/10 10:34:06;;;;;;;11.27;5.07;;;;;;;;;;5076225;28;20735;-48
2022/03/10 10:36:34;;;;;;;11.03;5.03;;;;;;;;;;5076214;28;20251;-49
2022/03/10 10:39:09;;;;;;;4.80;3.07;;;;;;;;;;5058932;28;20208;-48
2022/03/10 10:41:38;;;;;;;8.10;4.00;;;;;;;;;;5076611;28;20199;-48
2022/03/10 10:44:08;;;;;;;7.57;4.53;;;;;;;;;;5075998;28;20223;-47
2022/03/10 10:46:40;;;;;;;7.17;4.00;;;;;;;;;;5076073;28;20203;-48
2022/03/10 10:49:09;;;;;;;8.63;4.53;;;;;;;;;;5076293;28;20188;-48
2022/03/10 10:51:39;;;;;;;10.83;5.27;;;;;;;;;;5076083;28;20253;-48
2022/03/10 10:54:09;;;;;;;9.30;5.27;;;;;;;;;;5075752;28;20230;-48
2022/03/10 10:56:48;;;;;;;9.53;5.43;;;;;;;;;;5076208;28;20266;-48
2022/03/10 10:59:40;;;;;;;9.90;5.07;;;;;;;;;;5075817;28;20203;-48
2022/03/10 11:02:17;;;;;;;7.07;4.13;;;;;;;;;;5076442;28;20269;-48
2022/03/10 11:04:47;;;;;;;6.73;3.43;;;;;;;;;;5075773;28;20199;-50
2022/03/10 11:07:19;;;;;;;6.73;4.53;;;;;;;;;;5075992;28;20525;-48
2022/03/10 11:09:48;;;;;;;7.03;4.47;;;;;;;;;;5075615;28;20286;-48
2022/03/10 11:12:17;;;;;;;5.70;2.97;;;;;;;;;;5075704;28;20202;-48
2022/03/10 11:14:46;;;;;;;8.10;4.73;;;;;;;;;;5075250;28;20260;-49
2022/03/10 11:17:15;;;;;;;8.43;5.10;;;;;;;;;;5075596;28;20226;-48
2022/03/10 11:19:44;;;;;;;8.03;4.70;;;;;;;;;;5075524;28;20203;-47
2022/03/10 11:22:30;;;;;;;8.30;4.50;;;;;;;;;;5075740;28;20203;-48
2022/03/10 11:25:12;;;;;;;6.87;3.80;;;;;;;;;;5075146;28;20264;-48
2022/03/10 11:27:42;;;;;;;7.50;4.60;;;;;;;;;;5074909;28;20238;-48
2022/03/10 11:30:09;;;;;;;7.73;4.30;;;;;;;;;;5075045;28;20203;-48
2022/03/10 11:32:36;;;;;;;13.47;5.70;;;;;;;;;;5041617;28;20256;-48
2022/03/10 11:35:06;;;;;;;10.40;5.23;;;;;;;;;;5075066;28;20230;-48
2022/03/10 11:37:34;;;;;;;6.97;3.73;;;;;;;;;;5074903;28;20247;-48
2022/03/10 11:40:04;;;;;;;13.60;5.77;;;;;;;;;;5074940;28;20614;-49
2022/03/10 11:42:32;;;;;;;9.87;5.90;;;;;;;;;;5074891;28;20237;-48
2022/03/10 11:45:18;;;;;;;8.60;4.87;;;;;;;;;;5075038;28;20287;-48
2022/03/10 11:47:47;;;;;;;7.60;4.23;;;;;;;;;;5075102;28;20227;-48
2022/03/10 11:50:20;;;;;;;7.07;3.83;;;;;;;;;;5074814;28;20524;-48
2022/03/10 11:53:06;;;;;;;8.57;4.40;;;;;;;;;;5075593;28;20223;-48
2022/03/10 11:55:42;;;;;;;8.07;4.20;;;;;;;;;;5074954;28;20207;-50
2022/03/10 11:58:14;;;;;;;9.10;4.87;;;;;;;;;;5074948;28;20265;-47
2022/03/10 12:00:43;;;;;;;9.40;4.50;;;;;;;;;;5074712;28;20195;-48
2022/03/10 12:03:17;;;;;;;8.30;5.27;;;;;;;;;;5074622;28;20296;-48
2022/03/10 12:06:04;;;;;;;6.63;3.83;;;;;;;;;;5074640;28;20630;-48
2022/03/10 12:08:35;;;;;;;8.20;3.87;;;;;;;;;;5074551;28;20677;-48
2022/03/10 12:11:15;;;;;;;8.40;4.10;;;;;;;;;;5057837;28;20210;-48
2022/03/10 12:13:46;;;;;;;7.67;4.53;;;;;;;;;;5074622;28;20217;-48
2022/03/10 12:16:34;;;;;;;6.30;3.90;;;;;;;;;;5074869;28;20219;-50
2022/03/10 12:19:01;;;;;;;6.87;3.73;;;;;;;;;;5061678;28;20199;-51
2022/03/10 12:21:30;;;;;;;8.03;4.40;;;;;;;;;;5074782;28;20255;-49
2022/03/10 12:24:01;;;;;;;7.70;4.43;;;;;;;;;;5074788;28;20256;-48
2022/03/10 12:26:37;;;;;;;9.27;4.30;;;;;;;;;;5074452;28;20207;-47
2022/03/10 12:29:11;;;;;;;7.37;3.93;;;;;;;;;;5074884;28;20230;-49
2022/03/10 12:31:40;;;;;;;6.27;4.10;;;;;;;;;;5074763;28;20213;-48
2022/03/10 12:34:14;;;;;;;7.63;4.07;;;;;;;;;;5074575;28;20238;-47
2022/03/10 12:36:42;;;;;;;6.60;3.93;;;;;;;;;;5074430;28;20199;-48
2022/03/10 12:39:14;;;;;;;7.70;3.70;;;;;;;;;;5074517;28;20227;-47
2022/03/10 12:41:54;;;;;;;6.10;3.63;;;;;;;;;;5078913;28;20195;-49
2022/03/10 12:44:23;;;;;;;10.20;3.97;;;;;;;;;;5078780;28;20256;-47
2022/03/10 12:46:52;;;;;;;4.47;2.63;;;;;;;;;;5078290;28;20223;-48
2022/03/10 12:49:37;;;;;;;4.77;3.07;;;;;;;;;;5078024;28;20203;-49
2022/03/10 12:52:10;;;;;;;6.53;3.80;;;;;;;;;;5069140;28;20243;-49
2022/03/10 12:54:42;;;;;;;6.27;3.53;;;;;;;;;;5075798;28;20223;-49
2022/03/10 12:57:10;;;;;;;6.43;3.80;;;;;;;;;;5073548;28;20739;-49
2022/03/10 12:59:40;;;;;;;6.27;4.23;;;;;;;;;;5075881;28;20288;-49
2022/03/10 13:02:24;;;;;;;7.87;4.27;;;;;;;;;;5073826;28;20230;-49
2022/03/10 13:04:57;;;;;;;6.87;4.33;;;;;;;;;;5074604;28;20253;-49
2022/03/10 13:07:28;;;;;;;6.57;3.73;;;;;;;;;;5071373;28;20248;-49
2022/03/10 13:10:00;;;;;;;5.10;3.37;;;;;;;;;;5054952;28;20216;-48
2022/03/10 13:12:30;;;;;;;10.20;3.70;;;;;;;;;;5057932;28;20227;-48
2022/03/10 13:14:58;;;;;;;5.10;2.90;;;;;;;;;;5075944;28;20219;-50
2022/03/10 13:17:34;;;;;;;4.20;3.07;;;;;;;;;;5072576;28;20246;-49
2022/03/10 13:20:16;;;;;;;6.80;3.10;;;;;;;;;;5073320;28;20223;-52
2022/03/10 13:22:48;;;;;;;5.60;3.17;;;;;;;;;;5072011;28;20677;-50
2022/03/10 13:25:17;;;;;;;5.23;2.93;;;;;;;;;;5075450;28;20552;-50
2022/03/10 13:27:46;;;;;;;5.80;3.83;;;;;;;;;;5072218;28;20242;-49
2022/03/10 13:30:22;;;;;;;5.40;3.70;;;;;;;;;;5075361;28;20662;-49
2022/03/10 13:32:51;;;;;;;6.13;3.57;;;;;;;;;;5073328;28;20272;-50
2022/03/10 13:35:25;;;;;;;4.07;3.20;;;;;;;;;;5075392;28;20296;-49
2022/03/10 13:37:52;;;;;;;7.20;3.53;;;;;;;;;;5057015;28;20673;-49
2022/03/10 13:40:20;;;;;;;7.47;3.03;;;;;;;;;;5075047;28;20277;-49
2022/03/10 13:42:52;;;;;;;7.00;3.53;;;;;;;;;;5076075;28;20289;-49
2022/03/10 13:45:21;;;;;;;4.27;2.60;;;;;;;;;;5076487;28;20235;-47
2022/03/10 13:47:59;;;;;;;5.27;3.03;;;;;;;;;;5073589;28;20219;-49
2022/03/10 13:50:32;;;;;;;3.00;2.50;;;;;;;;;;5075183;28;20696;-49
2022/03/10 13:53:08;;;;;;;4.23;2.90;;;;;;;;;;5071627;28;20223;-49
2022/03/10 13:55:37;;;;;;;4.27;2.43;;;;;;;;;;5075515;28;20649;-49
2022/03/10 13:58:05;;;;;;;6.03;3.47;;;;;;;;;;5074475;28;20281;-47
2022/03/10 14:00:38;;;;;;;3.23;2.30;;;;;;;;;;5070350;28;20285;-47
2022/03/10 14:03:16;;;;;;;8.80;2.97;;;;;;;;;;5067071;28;20231;-53
2022/03/10 14:06:00;;;;;;;4.73;2.90;;;;;;;;;;5075733;28;20211;-52
2022/03/10 14:08:29;;;;;;;3.77;2.67;;;;;;;;;;5072619;28;20605;-50
2022/03/10 14:10:58;;;;;;;4.47;2.40;;;;;;;;;;5075326;28;20223;-51
2022/03/10 14:13:31;;;;;;;4.37;2.90;;;;;;;;;;5075605;28;20577;-49
2022/03/10 14:16:06;;;;;;;4.30;2.30;;;;;;;;;;5075560;28;20223;-49
2022/03/10 14:18:37;;;;;;;4.43;2.70;;;;;;;;;;5071500;28;20241;-49
2022/03/10 14:21:06;;;;;;;4.47;3.00;;;;;;;;;;5072192;28;20306;-51
2022/03/10 14:23:34;;;;;;;5.47;3.00;;;;;;;;;;5073907;28;20281;-52
2022/03/10 14:26:22;;;;;;;5.17;2.67;;;;;;;;;;5074153;28;20223;-47
2022/03/10 14:28:50;;;;;;;9.40;3.80;;;;;;;;;;5073606;28;20268;-48
2022/03/10 14:31:21;;;;;;;5.63;2.63;;;;;;;;;;5056366;28;20227;-52
2022/03/10 14:33:50;;;;;;;6.97;3.37;;;;;;;;;;5073084;28;20754;-49
2022/03/10 14:36:20;;;;;;;6.37;2.83;;;;;;;;;;5055554;28;20219;-51
2022/03/10 14:38:49;;;;;;;8.90;3.60;;;;;;;;;;5073381;28;20231;-52
2022/03/10 14:41:20;;;;;;;10.50;5.00;;;;;;;;;;5073818;28;20242;-52
2022/03/10 14:43:47;;;;;;;9.00;3.67;;;;;;;;;;5073565;28;20689;-56
2022/03/10 14:46:15;;;;;;;6.23;3.23;;;;;;;;;;5074212;28;20526;-53
2022/03/10 14:48:42;;;;;;;4.13;2.67;;;;;;;;;;5073402;28;20219;-52
2022/03/10 14:51:11;;;;;;;5.00;2.77;;;;;;;;;;5073313;28;20728;-52